Time;durP1;ratioP1;P1;durP2;ratioP2;P2;SDS_P1;SDS_P2;PMS_P1;PMS_P2;Temp;Humidity;BMP_temperature;BMP_pressure;BME280_temperature;BME280_humidity;BME280_pressure;Samples;Min_cycle;Max_cycle;Signal;HPM_P1;HPM_P2
2021/07/20 00:00:32;;;;;;;8.90;8.10;;;19.40;99.90;;;;;;4982681;23;20208;-74
2021/07/20 00:02:58;;;;;;;9.43;8.53;;;19.50;99.90;;;;;;4960885;28;20239;-74
2021/07/20 00:05:26;;;;;;;9.70;8.50;;;19.50;99.90;;;;;;4961036;28;20184;-74
2021/07/20 00:07:54;;;;;;;11.80;7.70;;;19.40;99.90;;;;;;4960759;28;20187;-74
2021/07/20 00:10:31;;;;;;;15.17;7.70;;;19.40;99.90;;;;;;4978161;28;20200;-74
2021/07/20 00:12:57;;;;;;;8.33;7.37;;;19.30;99.90;;;;;;4960942;28;20177;-74
2021/07/20 00:15:23;;;;;;;7.90;7.20;;;19.30;99.90;;;;;;4960775;28;20258;-74
2021/07/20 00:17:51;;;;;;;9.27;7.87;;;19.20;99.90;;;;;;4960877;28;20590;-74
2021/07/20 00:20:21;;;;;;;9.13;8.20;;;19.20;99.90;;;;;;4960937;28;20180;-74
2021/07/20 00:22:47;;;;;;;8.67;7.83;;;19.10;99.90;;;;;;4978268;28;20172;-74
2021/07/20 00:25:13;;;;;;;10.50;9.60;;;19.00;99.90;;;;;;4960472;28;20176;-74
2021/07/20 00:27:39;;;;;;;10.47;8.60;;;19.00;99.90;;;;;;4960533;28;20234;-74
2021/07/20 00:30:06;;;;;;;9.90;9.00;;;19.10;99.90;;;;;;4974590;28;20202;-74
2021/07/20 00:32:32;;;;;;;10.53;9.47;;;19.00;99.90;;;;;;4977652;28;20206;-74
2021/07/20 00:34:57;;;;;;;9.23;8.37;;;18.90;99.90;;;;;;4977484;28;20205;-74
2021/07/20 00:37:23;;;;;;;11.00;10.07;;;18.90;99.90;;;;;;4977720;28;20267;-74
2021/07/20 00:39:49;;;;;;;11.17;10.00;;;18.90;99.90;;;;;;4977586;28;20176;-74
2021/07/20 00:42:15;;;;;;;12.40;10.03;;;18.90;99.90;;;;;;4960255;28;20199;-74
2021/07/20 00:44:41;;;;;;;12.17;10.87;;;18.90;99.90;;;;;;4977456;28;20180;-74
2021/07/20 00:47:06;;;;;;;11.47;10.27;;;18.90;99.90;;;;;;4960631;28;20208;-74
2021/07/20 00:49:32;;;;;;;11.53;10.43;;;19.00;99.90;;;;;;4977534;28;20226;-74
2021/07/20 00:51:58;;;;;;;14.73;11.10;;;19.00;99.90;;;;;;4977486;28;20203;-74
2021/07/20 00:54:24;;;;;;;12.87;11.27;;;19.00;99.90;;;;;;4979899;28;20565;-74
2021/07/20 00:56:51;;;;;;;12.13;10.93;;;18.90;99.90;;;;;;4977913;28;20207;-74
2021/07/20 00:59:17;;;;;;;13.80;11.30;;;19.00;99.90;;;;;;4977379;28;20188;-74
2021/07/20 01:01:43;;;;;;;11.73;10.53;;;18.90;99.90;;;;;;4960335;28;20595;-73
2021/07/20 01:04:09;;;;;;;15.10;10.83;;;19.00;99.90;;;;;;4977364;28;20180;-74
2021/07/20 01:06:36;;;;;;;13.83;10.13;;;18.90;99.90;;;;;;4977049;28;20184;-74
2021/07/20 01:09:03;;;;;;;11.00;9.90;;;18.90;99.90;;;;;;4977000;28;20180;-74
2021/07/20 01:11:32;;;;;;;10.43;9.43;;;18.90;99.90;;;;;;4960325;28;20203;-74
2021/07/20 01:14:01;;;;;;;10.80;9.70;;;18.90;99.90;;;;;;4977048;28;20192;-74
2021/07/20 01:16:27;;;;;;;10.57;9.67;;;18.80;99.90;;;;;;4976961;28;20176;-74
2021/07/20 01:18:53;;;;;;;10.70;9.63;;;18.80;99.90;;;;;;4959503;28;20644;-74
2021/07/20 01:21:20;;;;;;;10.57;9.40;;;18.80;99.90;;;;;;4976908;28;20192;-74
2021/07/20 01:23:50;;;;;;;11.13;10.03;;;18.70;99.90;;;;;;4975270;28;20233;-74
2021/07/20 01:26:16;;;;;;;10.80;9.80;;;18.60;99.90;;;;;;4970013;28;20180;-73
2021/07/20 01:28:44;;;;;;;11.17;9.90;;;18.50;99.90;;;;;;4960211;28;20187;-74
2021/07/20 01:31:12;;;;;;;11.73;10.70;;;18.50;99.90;;;;;;4959849;28;20208;-73
2021/07/20 01:33:45;;;;;;;11.67;10.50;;;18.40;99.90;;;;;;4976348;28;20207;-73
2021/07/20 01:36:12;;;;;;;12.80;10.00;;;18.30;99.90;;;;;;4959340;28;20200;-74
2021/07/20 01:38:39;;;;;;;12.77;10.13;;;18.30;99.90;;;;;;4976580;28;20552;-74
2021/07/20 01:41:09;;;;;;;13.03;10.60;;;18.30;99.90;;;;;;4977516;28;20203;-74
2021/07/20 01:43:38;;;;;;;11.13;10.03;;;18.20;99.90;;;;;;4978092;28;20183;-74
2021/07/20 01:46:06;;;;;;;12.10;10.63;;;18.20;99.90;;;;;;4960094;28;20199;-74
2021/07/20 01:48:38;;;;;;;15.47;11.33;;;18.10;99.90;;;;;;4976436;28;20230;-74
2021/07/20 01:51:04;;;;;;;12.50;10.57;;;18.10;99.90;;;;;;4976690;28;20558;-74
2021/07/20 01:53:32;;;;;;;10.83;9.73;;;18.00;99.90;;;;;;4976435;28;20172;-74
2021/07/20 01:56:00;;;;;;;11.37;10.27;;;18.00;99.90;;;;;;4976206;28;20698;-74
2021/07/20 01:58:27;;;;;;;11.03;10.03;;;18.00;99.90;;;;;;4958832;28;20186;-75
2021/07/20 02:00:57;;;;;;;11.63;10.37;;;18.00;99.90;;;;;;4976053;28;20302;-74
2021/07/20 02:08:56;;;;;;;15.93;10.63;;;17.80;99.90;;;;;;4971242;28;20665;-74
2021/07/20 02:11:30;;;;;;;13.63;10.83;;;17.90;99.90;;;;;;4976254;28;20297;-74
2021/07/20 02:14:02;;;;;;;14.70;11.10;;;17.90;99.90;;;;;;4975979;28;20207;-73
2021/07/20 02:16:32;;;;;;;12.87;11.13;;;17.90;99.90;;;;;;4958551;28;20173;-73
2021/07/20 02:19:02;;;;;;;12.27;11.00;;;17.90;99.90;;;;;;4970216;28;20259;-74
2021/07/20 02:21:29;;;;;;;14.80;10.83;;;17.80;99.90;;;;;;4965441;28;20197;-74
2021/07/20 02:23:56;;;;;;;12.53;11.30;;;17.80;99.90;;;;;;4973289;28;20545;-74
2021/07/20 02:26:24;;;;;;;18.07;11.40;;;17.80;99.90;;;;;;4956871;28;20183;-74
2021/07/20 02:28:52;;;;;;;12.40;11.10;;;17.80;99.90;;;;;;4975817;28;20176;-74
2021/07/20 02:31:20;;;;;;;12.70;11.43;;;17.90;99.90;;;;;;4959091;28;20211;-74
2021/07/20 02:33:47;;;;;;;12.93;11.60;;;17.80;99.90;;;;;;4957580;28;20207;-73
2021/07/20 02:36:13;;;;;;;13.20;11.90;;;17.70;99.90;;;;;;4975427;28;20173;-74
2021/07/20 02:38:41;;;;;;;14.17;12.23;;;17.70;99.90;;;;;;4965333;28;20240;-74
2021/07/20 02:41:08;;;;;;;13.23;12.03;;;17.60;99.90;;;;;;4976056;28;20203;-74
2021/07/20 02:43:35;;;;;;;14.00;12.60;;;17.60;99.90;;;;;;4976027;28;20539;-74
2021/07/20 02:46:01;;;;;;;15.13;13.07;;;17.60;99.90;;;;;;4975469;28;20254;-74
2021/07/20 02:48:28;;;;;;;14.57;13.03;;;17.60;99.90;;;;;;4958110;28;20184;-74
2021/07/20 02:50:55;;;;;;;15.43;12.70;;;17.60;99.90;;;;;;4975271;28;20230;-74
2021/07/20 02:53:21;;;;;;;15.17;13.60;;;17.60;99.90;;;;;;4975227;28;20184;-74
2021/07/20 02:55:49;;;;;;;16.07;13.53;;;17.60;99.90;;;;;;4957675;28;20554;-73
2021/07/20 02:58:17;;;;;;;15.47;12.67;;;17.60;99.90;;;;;;4975415;28;20180;-74
2021/07/20 03:00:43;;;;;;;15.90;13.27;;;17.60;99.90;;;;;;4974913;28;20208;-74
2021/07/20 03:03:10;;;;;;;17.40;13.23;;;17.60;99.90;;;;;;4975619;28;20188;-74
2021/07/20 03:05:37;;;;;;;16.07;13.10;;;17.60;99.90;;;;;;4957949;28;20216;-74
2021/07/20 03:08:05;;;;;;;15.50;13.53;;;17.70;99.90;;;;;;4975794;28;20183;-74
2021/07/20 03:10:34;;;;;;;16.53;13.17;;;17.80;99.90;;;;;;4974574;28;20192;-74
2021/07/20 03:13:07;;;;;;;14.70;13.20;;;17.80;99.90;;;;;;4969813;28;20188;-74
2021/07/20 03:15:36;;;;;;;15.00;13.00;;;17.80;99.90;;;;;;4955779;28;20278;-74
2021/07/20 03:18:04;;;;;;;13.97;12.57;;;17.80;99.90;;;;;;4956168;28;20263;-75
2021/07/20 03:20:31;;;;;;;15.57;13.17;;;17.80;99.90;;;;;;4955720;28;20180;-74
2021/07/20 03:22:58;;;;;;;14.83;12.77;;;17.80;99.90;;;;;;4955037;28;20192;-74
2021/07/20 03:25:25;;;;;;;14.73;13.27;;;17.80;99.90;;;;;;4955988;28;20188;-74
2021/07/20 03:27:53;;;;;;;14.20;12.80;;;17.70;99.90;;;;;;4957290;28;20194;-74
2021/07/20 03:30:19;;;;;;;14.03;12.63;;;17.70;99.90;;;;;;4954483;28;20226;-74
2021/07/20 03:32:47;;;;;;;14.10;12.53;;;17.60;99.90;;;;;;4953495;28;20886;-74
2021/07/20 03:35:15;;;;;;;14.20;12.63;;;17.70;99.90;;;;;;4940088;28;20209;-73
2021/07/20 03:37:42;;;;;;;13.90;12.30;;;17.60;99.90;;;;;;4970994;28;20635;-74
2021/07/20 03:40:09;;;;;;;18.63;13.50;;;17.60;99.90;;;;;;4972537;28;20179;-74
2021/07/20 03:42:35;;;;;;;20.50;13.50;;;17.50;99.90;;;;;;4972990;28;20246;-73
2021/07/20 03:45:02;;;;;;;14.07;12.57;;;17.40;99.90;;;;;;4973408;28;20240;-74
2021/07/20 03:47:28;;;;;;;14.73;13.07;;;17.30;99.90;;;;;;4974317;28;20221;-74
2021/07/20 03:49:55;;;;;;;14.97;13.40;;;17.30;99.90;;;;;;4974291;28;20215;-74
2021/07/20 03:52:22;;;;;;;13.73;12.33;;;17.40;99.90;;;;;;4971465;28;20215;-74
2021/07/20 03:54:48;;;;;;;16.23;13.13;;;17.40;99.90;;;;;;4969756;28;20667;-74
2021/07/20 03:57:18;;;;;;;14.23;12.80;;;17.30;99.90;;;;;;4954060;28;20187;-74
2021/07/20 03:59:44;;;;;;;16.07;13.43;;;17.30;99.90;;;;;;4956957;28;20207;-74
2021/07/20 04:02:12;;;;;;;15.97;13.47;;;17.30;99.90;;;;;;4962674;28;20212;-74
2021/07/20 04:04:41;;;;;;;15.37;12.90;;;17.30;99.90;;;;;;4971600;28;20181;-74
2021/07/20 04:07:17;;;;;;;16.03;12.77;;;17.20;99.90;;;;;;4958444;28;20647;-74
2021/07/20 04:09:45;;;;;;;17.13;14.77;;;17.20;99.90;;;;;;4960095;28;20187;-74
2021/07/20 04:12:13;;;;;;;15.90;14.27;;;17.20;99.90;;;;;;4972348;28;20241;-73
2021/07/20 04:14:40;;;;;;;18.80;15.23;;;17.20;99.90;;;;;;4973646;28;20200;-74
2021/07/20 04:17:09;;;;;;;15.60;13.97;;;17.20;99.90;;;;;;4973784;28;20188;-73
2021/07/20 04:19:35;;;;;;;15.83;14.07;;;17.30;99.90;;;;;;4974362;28;20206;-74
2021/07/20 04:22:01;;;;;;;16.80;13.97;;;17.20;99.90;;;;;;4973940;28;20666;-73
2021/07/20 04:24:29;;;;;;;17.07;13.97;;;17.20;99.90;;;;;;4974111;28;20187;-74
2021/07/20 04:26:55;;;;;;;16.93;14.43;;;17.20;99.90;;;;;;4974634;28;20184;-74
2021/07/20 04:29:22;;;;;;;15.73;14.03;;;17.20;99.90;;;;;;4974660;28;20216;-73
2021/07/20 04:31:49;;;;;;;16.53;13.87;;;17.20;99.90;;;;;;4974635;28;20216;-74
2021/07/20 04:34:16;;;;;;;18.07;13.77;;;17.20;99.90;;;;;;4974538;28;20204;-74
2021/07/20 04:36:44;;;;;;;23.07;14.47;;;17.20;99.90;;;;;;4960615;28;20212;-73
2021/07/20 04:39:11;;;;;;;20.17;14.93;;;17.20;99.90;;;;;;4961760;28;20706;-74
2021/07/20 04:41:37;;;;;;;19.33;14.40;;;17.30;99.90;;;;;;4973300;28;20207;-74
2021/07/20 04:44:04;;;;;;;18.53;14.53;;;17.40;99.90;;;;;;4971714;28;20196;-74
2021/07/20 04:46:30;;;;;;;17.43;14.93;;;17.30;99.90;;;;;;4974481;28;20188;-73
2021/07/20 04:48:55;;;;;;;18.40;15.20;;;17.30;99.90;;;;;;4975969;28;20195;-74
2021/07/20 04:51:22;;;;;;;19.10;15.67;;;17.30;99.90;;;;;;4959520;28;20757;-77
2021/07/20 04:53:50;;;;;;;16.47;14.13;;;17.40;99.90;;;;;;4977927;28;20187;-77
2021/07/20 04:56:16;;;;;;;19.23;14.73;;;17.40;99.90;;;;;;4978017;28;20690;-80
2021/07/20 04:58:42;;;;;;;16.27;14.60;;;17.50;99.90;;;;;;4977443;28;20208;-78
2021/07/20 05:01:09;;;;;;;19.07;14.63;;;17.50;99.90;;;;;;4960663;28;20246;-79
2021/07/20 05:03:39;;;;;;;17.07;15.00;;;17.60;99.90;;;;;;4978960;28;20176;-78
2021/07/20 05:06:06;;;;;;;22.23;16.23;;;17.70;99.90;;;;;;4978370;28;20214;-78
2021/07/20 05:08:33;;;;;;;18.27;15.17;;;17.80;99.90;;;;;;4970329;28;20543;-77
2021/07/20 05:11:00;;;;;;;16.77;15.10;;;17.80;99.90;;;;;;4978549;28;20219;-78
2021/07/20 05:13:26;;;;;;;19.83;14.90;;;17.90;99.90;;;;;;4978642;28;20654;-77
2021/07/20 05:16:03;;;;;;;22.47;15.67;;;17.90;99.90;;;;;;4979764;28;20278;-77
2021/07/20 05:18:29;;;;;;;21.10;15.50;;;17.90;99.90;;;;;;4978455;28;20647;-78
2021/07/20 05:20:57;;;;;;;17.87;14.93;;;17.90;99.90;;;;;;4977796;28;20279;-78
2021/07/20 05:23:25;;;;;;;17.20;14.47;;;17.90;99.90;;;;;;4979052;28;20184;-78
2021/07/20 05:25:55;;;;;;;17.53;15.73;;;17.90;99.90;;;;;;4981156;28;20184;-78
2021/07/20 05:28:24;;;;;;;20.87;15.97;;;18.00;99.90;;;;;;4981157;28;20683;-77
2021/07/20 05:30:53;;;;;;;20.67;15.40;;;18.00;99.90;;;;;;4981427;28;20203;-78
2021/07/20 05:33:19;;;;;;;19.00;14.93;;;18.10;99.90;;;;;;4980383;28;20191;-78
2021/07/20 05:35:49;;;;;;;18.57;15.73;;;18.10;99.90;;;;;;4969630;28;20279;-78
2021/07/20 05:38:14;;;;;;;17.83;15.57;;;18.10;99.90;;;;;;4980440;28;20554;-78
2021/07/20 05:40:41;;;;;;;19.90;14.73;;;18.10;99.90;;;;;;4980905;28;20197;-79
2021/07/20 05:43:07;;;;;;;18.53;15.40;;;18.30;99.90;;;;;;4980221;28;20263;-78
2021/07/20 05:45:35;;;;;;;22.03;17.10;;;18.30;99.90;;;;;;4964037;28;20196;-77
2021/07/20 05:48:03;;;;;;;19.33;15.80;;;18.30;99.90;;;;;;4980501;28;20197;-78
2021/07/20 05:50:29;;;;;;;17.77;15.63;;;18.40;99.90;;;;;;4963449;28;20643;-77
2021/07/20 05:52:56;;;;;;;20.77;15.80;;;18.50;99.90;;;;;;4980425;28;20191;-77
2021/07/20 05:55:24;;;;;;;16.93;14.17;;;18.50;99.90;;;;;;4962216;28;20208;-79
2021/07/20 05:57:50;;;;;;;17.80;15.57;;;18.60;99.90;;;;;;4979045;28;20172;-78
2021/07/20 06:00:22;;;;;;;18.97;15.20;;;18.70;99.90;;;;;;4980009;28;20541;-77
2021/07/20 06:02:49;;;;;;;17.77;15.33;;;18.70;99.90;;;;;;4991133;23;20710;-79
2021/07/20 06:05:15;;;;;;;19.67;14.63;;;18.80;99.90;;;;;;4968064;28;20204;-80
2021/07/20 06:07:44;;;;;;;15.57;13.57;;;18.80;99.90;;;;;;4983283;28;20184;-79
2021/07/20 06:10:17;;;;;;;18.97;14.47;;;18.80;99.90;;;;;;4980117;28;20177;-77
2021/07/20 06:12:48;;;;;;;22.13;14.67;;;18.90;99.90;;;;;;4950925;29;20705;-77
2021/07/20 06:15:16;;;;;;;16.20;14.37;;;19.00;99.90;;;;;;4960815;29;20199;-80
2021/07/20 06:17:43;;;;;;;17.53;14.87;;;19.00;99.90;;;;;;4967793;29;20181;-80
2021/07/20 06:20:13;;;;;;;18.83;14.30;;;19.00;99.90;;;;;;4945873;29;20180;-77
2021/07/20 06:22:59;;;;;;;16.03;14.33;;;19.10;99.90;;;;;;4947414;29;20742;-78
2021/07/20 06:25:25;;;;;;;19.63;14.53;;;19.10;99.90;;;;;;4944652;29;20683;-80
2021/07/20 06:27:52;;;;;;;17.30;13.80;;;19.20;99.90;;;;;;4962542;29;20185;-78
2021/07/20 06:30:39;;;;;;;15.27;13.63;;;19.20;99.90;;;;;;4944237;29;20185;-77
2021/07/20 06:33:06;;;;;;;17.17;14.47;;;19.30;99.90;;;;;;4955839;29;20299;-80
2021/07/20 06:35:31;;;;;;;18.87;14.67;;;19.30;99.90;;;;;;4944590;29;20204;-79
2021/07/20 06:37:59;;;;;;;16.87;14.83;;;19.30;99.90;;;;;;4964453;29;20532;-78
2021/07/20 06:40:30;;;;;;;15.80;13.57;;;19.40;99.90;;;;;;4925786;29;20181;-78
2021/07/20 06:42:56;;;;;;;15.53;13.60;;;19.50;99.90;;;;;;4923745;29;20209;-79
2021/07/20 06:45:28;;;;;;;15.63;14.03;;;19.50;99.90;;;;;;4948097;29;20186;-79
2021/07/20 06:51:02;;;;;;;18.23;14.27;;;19.60;99.90;;;;;;4889177;29;20287;-80
2021/07/20 06:53:29;;;;;;;19.33;14.50;;;19.50;99.90;;;;;;4888185;29;20211;-80
2021/07/20 06:55:58;;;;;;;15.27;13.67;;;19.50;99.90;;;;;;4932831;29;20240;-80
2021/07/20 06:58:26;;;;;;;17.10;14.30;;;19.50;99.90;;;;;;4966517;29;20208;-80
2021/07/20 07:01:03;;;;;;;16.33;14.13;;;19.50;99.90;;;;;;4945915;29;20658;-78
2021/07/20 07:04:06;;;;;;;15.90;14.27;;;19.50;99.90;;;;;;4942013;29;20252;-79
2021/07/20 07:06:36;;;;;;;15.87;14.17;;;19.60;99.90;;;;;;4941542;28;20181;-79
2021/07/20 07:09:03;;;;;;;18.40;14.23;;;19.70;99.90;;;;;;4960792;28;20228;-78
2021/07/20 07:11:29;;;;;;;15.23;13.63;;;19.70;99.90;;;;;;4943439;29;20236;-78
2021/07/20 07:13:55;;;;;;;16.80;14.20;;;19.70;99.90;;;;;;4926341;29;20674;-80
2021/07/20 07:16:22;;;;;;;16.00;14.30;;;19.80;99.90;;;;;;4924368;29;20648;-77
2021/07/20 07:18:48;;;;;;;17.33;14.40;;;19.80;99.90;;;;;;4925796;29;20178;-79
2021/07/20 07:21:15;;;;;;;15.17;12.90;;;19.90;99.90;;;;;;4941508;29;20178;-78
2021/07/20 07:23:43;;;;;;;18.47;14.43;;;20.00;99.90;;;;;;4922633;29;20193;-77
2021/07/20 07:26:13;;;;;;;17.23;15.40;;;20.00;99.90;;;;;;4942611;29;20174;-77
2021/07/20 07:28:40;;;;;;;16.77;14.63;;;20.10;99.90;;;;;;4921153;29;20173;-80
2021/07/20 07:31:10;;;;;;;16.57;14.77;;;20.10;99.90;;;;;;4947319;29;20180;-79
2021/07/20 07:33:36;;;;;;;20.47;14.37;;;20.10;99.90;;;;;;4949900;28;20228;-80
2021/07/20 07:36:02;;;;;;;15.93;14.27;;;20.20;99.90;;;;;;4962341;29;20227;-78
2021/07/20 07:38:28;;;;;;;16.27;14.53;;;20.20;99.90;;;;;;4949801;29;20177;-80
2021/07/20 07:40:57;;;;;;;17.67;14.17;;;20.30;99.90;;;;;;4958042;29;20668;-77
2021/07/20 07:43:26;;;;;;;16.13;14.33;;;20.30;99.90;;;;;;4960529;28;20209;-80
2021/07/20 07:45:53;;;;;;;17.07;14.13;;;20.30;99.90;;;;;;4962915;29;20272;-77
2021/07/20 07:48:20;;;;;;;18.50;15.03;;;20.50;99.90;;;;;;4961198;29;20196;-78
2021/07/20 07:50:47;;;;;;;15.43;13.83;;;20.60;99.90;;;;;;4959103;29;20177;-77
2021/07/20 07:53:14;;;;;;;18.67;15.07;;;20.60;99.90;;;;;;4968722;28;20205;-78
2021/07/20 07:55:42;;;;;;;15.60;14.00;;;20.70;99.90;;;;;;4943543;29;20196;-78
2021/07/20 07:58:11;;;;;;;16.67;14.90;;;20.70;99.90;;;;;;4961684;29;20232;-78
2021/07/20 08:00:39;;;;;;;17.50;14.03;;;20.70;99.90;;;;;;4957579;29;20177;-78
2021/07/20 08:03:07;;;;;;;19.73;14.43;;;20.90;99.90;;;;;;4943060;29;20260;-78
2021/07/20 08:05:34;;;;;;;16.80;15.10;;;21.00;99.90;;;;;;4950991;29;20185;-79
2021/07/20 08:08:00;;;;;;;18.40;14.40;;;21.10;99.90;;;;;;4947025;29;20181;-80
2021/07/20 08:10:27;;;;;;;19.53;14.40;;;21.30;99.90;;;;;;4957975;29;20660;-78
2021/07/20 08:12:59;;;;;;;15.43;13.53;;;21.30;99.90;;;;;;4962690;28;20199;-78
2021/07/20 08:15:24;;;;;;;17.90;13.53;;;21.40;99.90;;;;;;4962233;29;20220;-80
2021/07/20 08:17:53;;;;;;;22.93;14.47;;;21.50;99.90;;;;;;4942930;29;20632;-78
2021/07/20 08:20:20;;;;;;;20.53;15.43;;;21.50;99.90;;;;;;4943528;29;20173;-81
2021/07/20 08:22:47;;;;;;;16.10;14.47;;;21.40;99.90;;;;;;4970150;28;20205;-79
2021/07/20 08:25:26;;;;;;;17.37;15.37;;;21.30;99.90;;;;;;4969210;29;20177;-78
2021/07/20 08:28:07;;;;;;;18.13;15.03;;;21.40;99.90;;;;;;4966190;29;20259;-77
2021/07/20 08:30:37;;;;;;;17.03;15.33;;;21.50;99.90;;;;;;4955941;29;20193;-79
2021/07/20 08:33:06;;;;;;;16.97;14.10;;;21.60;99.90;;;;;;4970465;28;20601;-79
2021/07/20 08:35:33;;;;;;;14.90;13.40;;;21.70;99.90;;;;;;4966478;29;20288;-81
2021/07/20 08:38:04;;;;;;;15.63;14.10;;;21.80;99.90;;;;;;4940426;29;20181;-80
2021/07/20 08:41:09;;;;;;;15.73;13.90;;;21.90;99.90;;;;;;4970940;29;20180;-81
2021/07/20 08:43:56;;;;;;;15.80;13.83;;;22.10;99.90;;;;;;4954392;29;20197;-81
2021/07/20 08:46:40;;;;;;;14.90;13.00;;;22.20;99.90;;;;;;4972316;29;20196;-81
2021/07/20 08:49:20;;;;;;;15.00;13.40;;;22.30;99.90;;;;;;4973448;29;20200;-79
2021/07/20 08:51:56;;;;;;;15.77;14.17;;;22.40;99.90;;;;;;4972978;28;20197;-79
2021/07/20 08:54:54;;;;;;;14.87;13.37;;;22.50;99.90;;;;;;4971535;29;20200;-80
2021/07/20 08:57:27;;;;;;;15.73;14.10;;;22.50;99.90;;;;;;4953483;29;20264;-81
2021/07/20 09:00:08;;;;;;;15.10;13.63;;;22.60;99.90;;;;;;4953844;29;20207;-79
2021/07/20 09:02:44;;;;;;;16.47;13.80;;;22.80;99.90;;;;;;4949125;29;20716;-80
2021/07/20 09:05:13;;;;;;;17.63;13.87;;;22.90;99.90;;;;;;4952954;29;20172;-79
2021/07/20 09:08:05;;;;;;;14.90;13.30;;;23.00;99.90;;;;;;4951675;29;20196;-79
2021/07/20 09:11:01;;;;;;;15.40;13.70;;;23.00;99.90;;;;;;4968186;29;20189;-81
2021/07/20 09:13:36;;;;;;;14.73;12.93;;;23.00;99.90;;;;;;4951071;29;20201;-79
2021/07/20 09:16:32;;;;;;;;;;;;;;;;;;;;;
2021/07/20 09:19:15;;;;;;;15.47;12.87;;;23.20;99.90;;;;;;4969812;29;20268;-79
2021/07/20 09:22:11;;;;;;;17.33;12.90;;;23.20;99.90;;;;;;4954121;28;20205;-80
2021/07/20 09:24:56;;;;;;;14.47;13.03;;;23.20;99.90;;;;;;4968366;29;20181;-82
2021/07/20 09:27:52;;;;;;;13.57;12.17;;;23.40;99.90;;;;;;4936377;29;20212;-81
2021/07/20 09:30:25;;;;;;;16.27;14.63;;;23.60;99.90;;;;;;4968296;29;20205;-80
2021/07/20 09:33:06;;;;;;;13.60;12.20;;;23.70;99.90;;;;;;4966590;28;20288;-81
2021/07/20 09:35:56;;;;;;;14.00;12.67;;;23.70;99.90;;;;;;4959755;29;20692;-78
2021/07/20 09:39:23;;;;;;;14.53;13.03;;;23.60;99.90;;;;;;4929560;29;20188;-80
2021/07/20 09:42:01;;;;;;;13.40;12.10;;;23.40;99.90;;;;;;4871910;29;20232;-80
2021/07/20 09:44:39;;;;;;;13.30;12.10;;;23.50;99.90;;;;;;4891699;29;20267;-80
2021/07/20 09:47:39;;;;;;;13.30;12.00;;;23.50;99.90;;;;;;4953537;29;20199;-79
2021/07/20 09:50:10;;;;;;;13.43;12.17;;;23.60;99.90;;;;;;4950608;29;20700;-82
2021/07/20 09:52:41;;;;;;;13.97;12.27;;;23.70;99.90;;;;;;4951608;29;20205;-81
2021/07/20 09:55:52;;;;;;;13.47;12.07;;;23.80;99.90;;;;;;4967888;29;20224;-78
2021/07/20 09:58:31;;;;;;;14.00;11.20;;;23.90;99.90;;;;;;4964532;29;20260;-81
2021/07/20 10:01:24;;;;;;;13.47;11.73;;;23.70;99.90;;;;;;4942889;29;20206;-79
2021/07/20 10:04:05;;;;;;;16.17;11.80;;;23.80;99.90;;;;;;4946767;29;20194;-80
2021/07/20 10:06:35;;;;;;;12.70;11.30;;;23.90;99.90;;;;;;4931887;28;20205;-81
2021/07/20 10:09:09;;;;;;;12.83;11.53;;;24.00;99.90;;;;;;4949425;29;20204;-80
2021/07/20 10:11:44;;;;;;;14.27;12.30;;;24.00;99.90;;;;;;4949726;28;20196;-78
2021/07/20 10:14:35;;;;;;;14.03;12.73;;;24.00;99.90;;;;;;4965866;29;20255;-79
2021/07/20 10:17:19;;;;;;;12.47;11.17;;;24.00;99.90;;;;;;4965951;29;20193;-80
2021/07/20 10:20:17;;;;;;;12.83;11.73;;;24.20;99.90;;;;;;4952848;29;20177;-79
2021/07/20 10:22:52;;;;;;;12.50;11.07;;;24.30;99.90;;;;;;4952314;29;20309;-80
2021/07/20 10:26:14;;;;;;;;;;;;;;;;;;;;;
2021/07/20 10:29:17;;;;;;;11.20;10.10;;;24.30;99.90;;;;;;4889356;29;20270;-79
2021/07/20 10:32:28;;;;;;;12.50;11.20;;;24.60;99.90;;;;;;4889860;29;20191;-78
2021/07/20 10:35:04;;;;;;;11.73;10.70;;;24.70;99.90;;;;;;4960568;29;20284;-79
2021/07/20 10:37:36;;;;;;;12.20;10.90;;;25.00;99.90;;;;;;4953272;29;20632;-80
2021/07/20 10:40:09;;;;;;;13.33;12.03;;;25.20;99.90;;;;;;4954211;29;20205;-80
2021/07/20 10:42:55;;;;;;;12.67;11.30;;;25.20;99.90;;;;;;4950338;29;20289;-79
2021/07/20 10:45:22;;;;;;;13.20;11.90;;;25.10;99.90;;;;;;4947594;29;20192;-81
2021/07/20 10:47:58;;;;;;;13.43;12.03;;;25.20;99.90;;;;;;4970504;29;20240;-79
2021/07/20 10:50:32;;;;;;;13.60;12.20;;;25.30;99.90;;;;;;4953283;29;20189;-81
2021/07/20 10:53:44;;;;;;;13.47;12.13;;;25.40;99.90;;;;;;4968714;28;20202;-80
2021/07/20 10:56:41;;;;;;;12.97;11.37;;;25.50;99.90;;;;;;4935701;29;20188;-79
2021/07/20 10:59:19;;;;;;;13.93;12.60;;;25.70;99.90;;;;;;4969023;29;20169;-80
2021/07/20 11:02:03;;;;;;;14.83;12.20;;;25.60;99.90;;;;;;4966110;28;20220;-78
2021/07/20 11:05:09;;;;;;;13.87;12.47;;;25.60;99.90;;;;;;4951520;29;20180;-81
2021/07/20 11:08:08;;;;;;;15.53;12.37;;;25.60;99.90;;;;;;4874721;29;20690;-79
2021/07/20 11:10:44;;;;;;;14.17;12.87;;;25.60;99.90;;;;;;4940477;29;20194;-82
2021/07/20 11:13:13;;;;;;;13.93;12.50;;;25.60;99.90;;;;;;4958875;29;20196;-81
2021/07/20 11:15:55;;;;;;;14.37;12.83;;;25.80;99.90;;;;;;4938529;29;20229;-79
2021/07/20 11:18:29;;;;;;;14.03;12.73;;;25.90;99.90;;;;;;4954447;29;20632;-81
2021/07/20 11:21:23;;;;;;;13.77;12.50;;;26.00;99.90;;;;;;4970719;29;20181;-79
2021/07/20 11:23:53;;;;;;;14.77;13.03;;;26.10;99.90;;;;;;4948220;29;20292;-79
2021/07/20 11:26:48;;;;;;;14.70;13.20;;;26.10;99.90;;;;;;4967715;29;20585;-79
2021/07/20 11:29:17;;;;;;;18.77;13.87;;;26.30;99.90;;;;;;4946801;29;20281;-80
2021/07/20 11:31:59;;;;;;;17.27;15.40;;;26.40;99.90;;;;;;4968383;28;20275;-78
2021/07/20 11:34:36;;;;;;;16.27;14.57;;;26.40;99.90;;;;;;4968107;29;20291;-79
2021/07/20 11:37:14;;;;;;;16.97;15.13;;;26.40;99.90;;;;;;4969518;29;20173;-79
2021/07/20 11:39:47;;;;;;;17.77;15.60;;;26.50;99.90;;;;;;4957930;29;20197;-79
2021/07/20 11:42:45;;;;;;;21.70;17.50;;;26.40;99.90;;;;;;4949662;29;20680;-78
2021/07/20 11:45:13;;;;;;;17.43;15.57;;;26.50;99.90;;;;;;4930085;29;20603;-78
2021/07/20 11:48:12;;;;;;;16.80;15.07;;;26.60;99.90;;;;;;4967696;29;20173;-79
2021/07/20 11:51:00;;;;;;;18.90;16.40;;;26.60;99.90;;;;;;4943899;29;20173;-79
2021/07/20 11:53:44;;;;;;;18.23;16.20;;;26.40;99.90;;;;;;4961165;28;20255;-77
2021/07/20 11:56:20;;;;;;;22.27;17.90;;;26.40;99.90;;;;;;4940521;29;20200;-76
2021/07/20 11:59:04;;;;;;;18.90;16.90;;;26.60;99.90;;;;;;4963162;29;20184;-77
2021/07/20 12:02:08;;;;;;;18.40;16.50;;;26.60;99.90;;;;;;4962146;28;20253;-75
2021/07/20 12:04:57;;;;;;;20.50;17.97;;;26.70;99.90;;;;;;4977613;23;20318;-78
2021/07/20 12:07:33;;;;;;;25.30;20.77;;;26.90;99.90;;;;;;4960184;28;20192;-77
2021/07/20 12:10:06;;;;;;;21.30;19.00;;;27.60;99.90;;;;;;4959914;28;20244;-78
2021/07/20 12:12:46;;;;;;;24.70;19.27;;;27.20;99.90;;;;;;4960611;28;20200;-78
2021/07/20 12:15:13;;;;;;;22.30;19.27;;;27.50;99.90;;;;;;4959686;29;20543;-76
2021/07/20 12:17:40;;;;;;;21.27;17.50;;;27.60;99.90;;;;;;4960142;28;20217;-78
2021/07/20 12:20:08;;;;;;;20.23;17.17;;;27.50;99.90;;;;;;4958736;29;20256;-77
2021/07/20 12:22:33;;;;;;;19.87;17.80;;;27.40;99.90;;;;;;4957875;29;20227;-77
2021/07/20 12:25:07;;;;;;;21.40;19.03;;;27.50;99.90;;;;;;4957468;28;20205;-77
2021/07/20 12:27:36;;;;;;;19.83;17.73;;;27.40;99.90;;;;;;4951098;28;20181;-77
2021/07/20 12:30:04;;;;;;;20.53;18.40;;;27.40;99.90;;;;;;4957531;29;20216;-77
2021/07/20 12:32:30;;;;;;;23.97;19.83;;;27.10;99.90;;;;;;4958954;28;20224;-78
2021/07/20 12:34:59;;;;;;;20.60;18.43;;;26.90;99.90;;;;;;4958749;28;20284;-80
2021/07/20 12:37:25;;;;;;;21.17;18.30;;;26.80;99.90;;;;;;4960840;29;20274;-77
2021/07/20 12:39:58;;;;;;;19.70;17.40;;;26.90;99.90;;;;;;4961339;28;20663;-77
2021/07/20 12:42:39;;;;;;;18.60;16.63;;;27.10;99.90;;;;;;4961543;28;20173;-77
2021/07/20 12:45:08;;;;;;;17.67;15.97;;;27.30;99.90;;;;;;4959851;28;20251;-77
2021/07/20 12:47:39;;;;;;;19.73;17.70;;;27.40;99.90;;;;;;4949076;29;20180;-78
2021/07/20 12:50:06;;;;;;;24.20;16.30;;;27.60;99.90;;;;;;4962077;28;20189;-78
2021/07/20 12:52:38;;;;;;;18.50;15.33;;;27.60;99.90;;;;;;4962446;29;20183;-77
2021/07/20 12:55:15;;;;;;;15.90;14.30;;;27.60;99.90;;;;;;4960122;28;20211;-77
2021/07/20 12:57:52;;;;;;;17.40;15.53;;;27.70;99.90;;;;;;4960677;28;20177;-77
2021/07/20 13:00:26;;;;;;;17.77;16.07;;;27.90;99.90;;;;;;4960989;28;20177;-78
2021/07/20 13:02:53;;;;;;;16.63;15.03;;;28.10;99.90;;;;;;4961539;28;20173;-77
2021/07/20 13:05:20;;;;;;;18.20;16.37;;;27.90;99.90;;;;;;4959476;28;20208;-77